Time;durP1;ratioP1;P1;durP2;ratioP2;P2;SDS_P1;SDS_P2;PMS_P1;PMS_P2;Temp;Humidity;BMP_temperature;BMP_pressure;BME280_temperature;BME280_humidity;BME280_pressure;Samples;Min_cycle;Max_cycle;Signal;HPM_P1;HPM_P2
2023/05/17 00:00:08;;;;;;;;;2.67;2.00;;;;;;;;4645123;30;45365;-90
2023/05/17 00:02:33;;;;;;;;;3.00;3.00;;;;;;;;4644758;30;45780;-90
2023/05/17 00:04:59;;;;;;;;;2.00;2.00;;;;;;;;4645542;30;46129;-90
2023/05/17 00:07:24;;;;;;;;;2.33;2.33;;;;;;;;4643675;30;45572;-90
2023/05/17 00:09:49;;;;;;;;;3.67;3.67;;;;;;;;4650443;30;45517;-90
2023/05/17 00:12:14;;;;;;;;;3.00;3.00;;;;;;;;4647259;30;45484;-89
2023/05/17 00:14:40;;;;;;;;;2.00;2.00;;;;;;;;4654724;30;46381;-90
2023/05/17 00:17:05;;;;;;;;;2.67;2.67;;;;;;;;4643978;30;45435;-90
2023/05/17 00:19:30;;;;;;;;;3.00;3.00;;;;;;;;4643868;30;45491;-90
2023/05/17 00:21:56;;;;;;;;;3.00;3.00;;;;;;;;4649747;30;45392;-90
2023/05/17 00:24:21;;;;;;;;;3.00;3.00;;;;;;;;4638197;30;45340;-90
2023/05/17 00:26:46;;;;;;;;;3.67;3.67;;;;;;;;4645530;30;45432;-90
2023/05/17 00:29:11;;;;;;;;;4.67;3.00;;;;;;;;4636878;30;45420;-90
2023/05/17 00:31:37;;;;;;;;;2.00;2.00;;;;;;;;4640770;30;45313;-90
2023/05/17 00:34:05;;;;;;;;;2.00;2.00;;;;;;;;4654935;30;45399;-90
2023/05/17 00:36:30;;;;;;;;;2.00;2.00;;;;;;;;4653608;30;46791;-90
2023/05/17 00:38:55;;;;;;;;;4.00;2.67;;;;;;;;4645255;30;45266;-90
2023/05/17 00:41:21;;;;;;;;;3.00;3.00;;;;;;;;4638022;30;45489;-90
2023/05/17 00:43:46;;;;;;;;;4.00;4.00;;;;;;;;4636368;30;47262;-90
2023/05/17 00:46:15;;;;;;;;;2.00;2.00;;;;;;;;4639468;30;45310;-90
2023/05/17 00:48:40;;;;;;;;;2.00;2.00;;;;;;;;4637816;30;45424;-89
2023/05/17 00:51:05;;;;;;;;;2.00;2.00;;;;;;;;4636715;30;45344;-90
2023/05/17 00:53:31;;;;;;;;;1.33;1.33;;;;;;;;4647686;30;46190;-89
2023/05/17 00:55:56;;;;;;;;;3.00;3.00;;;;;;;;4650246;30;45439;-90
2023/05/17 00:58:22;;;;;;;;;3.33;3.33;;;;;;;;4653937;30;45317;-90
2023/05/17 01:00:51;;;;;;;;;2.67;2.67;;;;;;;;4652915;30;45324;-90
2023/05/17 01:03:16;;;;;;;;;2.00;2.00;;;;;;;;4654440;30;46201;-90
2023/05/17 01:05:42;;;;;;;;;1.33;1.33;;;;;;;;4654580;30;45210;-90
2023/05/17 01:08:07;;;;;;;;;2.00;2.00;;;;;;;;4648500;30;45352;-90
2023/05/17 01:10:51;;;;;;;;;2.00;2.00;;;;;;;;4654517;30;45300;-90
2023/05/17 01:13:16;;;;;;;;;2.33;2.33;;;;;;;;4654651;30;46098;-91
2023/05/17 01:15:45;;;;;;;;;3.33;3.33;;;;;;;;4649211;30;45457;-90
2023/05/17 01:18:30;;;;;;;;;3.67;3.67;;;;;;;;4650849;30;45396;-90
2023/05/17 01:20:57;;;;;;;;;2.67;2.67;;;;;;;;4640141;30;45504;-90
2023/05/17 01:23:22;;;;;;;;;3.33;3.00;;;;;;;;4638248;30;46119;-90
2023/05/17 01:26:07;;;;;;;;;3.00;3.00;;;;;;;;4646980;30;46987;-90
2023/05/17 01:28:33;;;;;;;;;3.00;3.00;;;;;;;;4651039;30;45628;-90
2023/05/17 01:31:00;;;;;;;;;2.00;2.00;;;;;;;;4648129;30;45346;-90
2023/05/17 01:33:25;;;;;;;;;2.67;2.67;;;;;;;;4640587;30;46224;-90
2023/05/17 01:41:42;;;;;;;;;4.00;4.00;;;;;;;;2;261042517;261042517;-90
2023/05/17 01:49:59;;;;;;;;;1.50;1.50;;;;;;;;2;216064425;216064425;-89
2023/05/17 01:58:14;;;;;;;;;3.00;3.00;;;;;;;;2;261080073;261080073;-90
2023/05/17 02:06:30;;;;;;;;;6.50;6.50;;;;;;;;2;216064359;216064359;-90
2023/05/17 02:14:45;;;;;;;;;1.50;1.50;;;;;;;;2;261078127;261078127;-89
2023/05/17 02:23:01;;;;;;;;;2.50;2.50;;;;;;;;2;216067794;216067794;-89
2023/05/17 02:30:47;;;;;;;;;2.50;2.50;;;;;;;;2;232254820;232254820;-89
2023/05/17 02:39:03;;;;;;;;;2.00;2.00;;;;;;;;2;216067991;216067991;-89
2023/05/17 02:47:20;;;;;;;;;5.50;5.50;;;;;;;;2;261078631;261078631;-89
2023/05/17 02:55:35;;;;;;;;;5.00;5.00;;;;;;;;2;216072792;216072792;-89
2023/05/17 03:03:50;;;;;;;;;1.00;1.00;;;;;;;;2;261081050;261081050;-90
2023/05/17 03:12:06;;;;;;;;;1.50;1.50;;;;;;;;2;216070869;216070869;-89
2023/05/17 03:20:22;;;;;;;;;3.00;3.00;;;;;;;;2;261081669;261081669;-89
2023/05/17 03:28:37;;;;;;;;;1.00;1.00;;;;;;;;2;216064529;216064529;-89
2023/05/17 03:36:53;;;;;;;;;2.50;2.50;;;;;;;;2;261082604;261082604;-89
2023/05/17 03:45:08;;;;;;;;;2.00;2.00;;;;;;;;2;216064354;216064354;-89
2023/05/17 03:53:24;;;;;;;;;2.50;2.50;;;;;;;;2;261082363;261082363;-89
2023/05/17 04:01:40;;;;;;;;;0.50;0.50;;;;;;;;2;216067175;216067175;-89
2023/05/17 04:10:01;;;;;;;;;3.00;3.00;;;;;;;;2;261081532;261081532;-90
2023/05/17 04:18:17;;;;;;;;;1.00;1.00;;;;;;;;2;216068270;216068270;-89
2023/05/17 04:26:33;;;;;;;;;1.00;1.00;;;;;;;;2;261079684;261079684;-89
2023/05/17 04:34:48;;;;;;;;;5.00;5.00;;;;;;;;2;216069601;216069601;-89
2023/05/17 04:43:04;;;;;;;;;2.50;2.50;;;;;;;;2;261080187;261080187;-89
2023/05/17 04:51:20;;;;;;;;;4.50;4.50;;;;;;;;2;216063762;216063762;-89
2023/05/17 04:59:35;;;;;;;;;6.00;6.00;;;;;;;;2;261065641;261065641;-89
2023/05/17 05:07:51;;;;;;;;;5.00;5.00;;;;;;;;2;216069501;216069501;-89
2023/05/17 05:16:06;;;;;;;;;5.50;5.50;;;;;;;;2;261080574;261080574;-89
2023/05/17 05:24:22;;;;;;;;;4.00;4.00;;;;;;;;2;216071980;216071980;-89
2023/05/17 05:32:37;;;;;;;;;9.00;9.00;;;;;;;;2;261080938;261080938;-89
2023/05/17 05:40:53;;;;;;;;;6.50;6.50;;;;;;;;2;216070511;216070511;-89
2023/05/17 05:49:08;;;;;;;;;3.50;3.50;;;;;;;;2;261080551;261080551;-89
2023/05/17 05:57:24;;;;;;;;;0.00;0.00;;;;;;;;2;216068063;216068063;-89
2023/05/17 06:05:39;;;;;;;;;7.00;7.00;;;;;;;;2;261081757;261081757;-89
2023/05/17 06:13:55;;;;;;;;;5.50;5.50;;;;;;;;2;216064275;216064275;-89
2023/05/17 06:22:10;;;;;;;;;5.00;5.00;;;;;;;;2;261078494;261078494;-90
2023/05/17 06:30:26;;;;;;;;;3.50;3.50;;;;;;;;2;216064570;216064570;-89
2023/05/17 06:38:44;;;;;;;;;5.00;5.00;;;;;;;;2;261077239;261077239;-89
2023/05/17 06:46:59;;;;;;;;;3.50;3.50;;;;;;;;2;216066421;216066421;-89
2023/05/17 06:55:15;;;;;;;;;7.00;7.00;;;;;;;;2;261082177;261082177;-89
2023/05/17 07:12:44;;;;;;;;;1.50;1.50;;;;;;;;2;261076955;261076955;-95
2023/05/17 07:46:25;;;;;;;;;4.00;4.00;;;;;;;;2;261152253;261152253;-93
2023/05/17 07:54:41;;;;;;;;;2.50;2.50;;;;;;;;2;216065324;216065324;-93
2023/05/17 08:02:56;;;;;;;;;2.00;2.00;;;;;;;;2;261082388;261082388;-93
2023/05/17 08:11:11;;;;;;;;;3.00;3.00;;;;;;;;2;216067355;216067355;-93
2023/05/17 08:19:27;;;;;;;;;1.50;1.50;;;;;;;;2;261079906;261079906;-93
2023/05/17 08:27:42;;;;;;;;;2.50;2.50;;;;;;;;2;216071550;216071550;-93
2023/05/17 08:52:35;;;;;;;;;3.50;3.50;;;;;;;;2;261140163;261140163;-95
2023/05/17 09:01:03;;;;;;;;;1.50;1.50;;;;;;;;2;216067711;216067711;-96
2023/05/17 09:09:19;;;;;;;;;0.50;0.50;;;;;;;;2;261079967;261079967;-95
2023/05/17 09:17:34;;;;;;;;;1.00;1.00;;;;;;;;2;216065902;216065902;-96
2023/05/17 09:25:50;;;;;;;;;1.00;1.00;;;;;;;;2;261091555;261091555;-95
2023/05/17 09:34:41;;;;;;;;;1.00;1.00;;;;;;;;2;216071599;216071599;-96
2023/05/17 09:42:57;;;;;;;;;3.00;3.00;;;;;;;;2;261087298;261087298;-96
2023/05/17 09:51:31;;;;;;;;;0.50;0.50;;;;;;;;2;216068361;216068361;-95
2023/05/17 09:59:46;;;;;;;;;2.00;2.00;;;;;;;;2;261089641;261089641;-96
2023/05/17 10:08:03;;;;;;;;;2.50;2.50;;;;;;;;2;216070758;216070758;-96
2023/05/17 10:16:21;;;;;;;;;2.00;2.00;;;;;;;;2;261081442;261081442;-96
2023/05/17 10:24:36;;;;;;;;;2.00;2.00;;;;;;;;2;216075321;216075321;-95
2023/05/17 10:33:01;;;;;;;;;0.00;0.00;;;;;;;;2;261083464;261083464;-96
2023/05/17 10:41:27;;;;;;;;;1.00;1.00;;;;;;;;2;216065114;216065114;-95
2023/05/17 11:24:31;;;;;;;;;1.50;1.50;;;;;;;;2;261106138;261106138;-95
2023/05/17 11:32:51;;;;;;;;;0.50;0.50;;;;;;;;2;216130607;216130607;-94
2023/05/17 11:41:21;;;;;;;;;1.00;1.00;;;;;;;;2;261078843;261078843;-94
2023/05/17 11:49:37;;;;;;;;;1.50;1.50;;;;;;;;2;216069600;216069600;-94
2023/05/17 11:57:53;;;;;;;;;0.00;0.00;;;;;;;;2;261080147;261080147;-95
2023/05/17 12:06:11;;;;;;;;;1.50;1.50;;;;;;;;2;216068005;216068005;-94
2023/05/17 12:14:27;;;;;;;;;0.00;0.00;;;;;;;;2;261080218;261080218;-93
2023/05/17 12:22:54;;;;;;;;;1.50;1.50;;;;;;;;2;216070265;216070265;-96
2023/05/17 12:31:15;;;;;;;;;2.00;2.00;;;;;;;;2;261079989;261079989;-95
2023/05/17 12:39:31;;;;;;;;;1.00;1.00;;;;;;;;2;216065302;216065302;-94
2023/05/17 12:47:49;;;;;;;;;2.50;2.50;;;;;;;;2;261086591;261086591;-94
2023/05/17 12:56:05;;;;;;;;;0.00;0.00;;;;;;;;2;216065118;216065118;-94
2023/05/17 13:04:37;;;;;;;;;;;;;;;;;;;;;
2023/05/17 13:12:53;;;;;;;;;0.00;0.00;;;;;;;;2;198116638;198116638;-93
2023/05/17 13:21:08;;;;;;;;;0.00;0.00;;;;;;;;2;261090971;261090971;-94
2023/05/17 13:29:24;;;;;;;;;1.50;1.50;;;;;;;;2;216068529;216068529;-94
2023/05/17 13:37:39;;;;;;;;;0.50;0.50;;;;;;;;2;261078322;261078322;-94
2023/05/17 13:45:57;;;;;;;;;0.00;0.00;;;;;;;;2;216067357;216067357;-94
2023/05/17 13:54:13;;;;;;;;;0.00;0.00;;;;;;;;2;261082977;261082977;-94
2023/05/17 14:02:28;;;;;;;;;0.00;0.00;;;;;;;;2;216069106;216069106;-94
2023/05/17 14:10:47;;;;;;;;;1.00;1.00;;;;;;;;2;261078894;261078894;-92
2023/05/17 14:19:02;;;;;;;;;0.00;0.00;;;;;;;;2;216064982;216064982;-90
2023/05/17 14:27:20;;;;;;;;;1.50;1.50;;;;;;;;2;261076343;261076343;-94
2023/05/17 14:35:35;;;;;;;;;0.00;0.00;;;;;;;;2;216067014;216067014;-94
2023/05/17 14:44:03;;;;;;;;;0.00;0.00;;;;;;;;2;261080008;261080008;-96
2023/05/17 14:52:19;;;;;;;;;0.00;0.00;;;;;;;;2;216068819;216068819;-91
2023/05/17 15:00:37;;;;;;;;;0.00;0.00;;;;;;;;2;261081290;261081290;-91
2023/05/17 15:08:53;;;;;;;;;0.00;0.00;;;;;;;;2;216067816;216067816;-89
2023/05/17 15:17:09;;;;;;;;;0.00;0.00;;;;;;;;2;261078375;261078375;-88
2023/05/17 15:25:24;;;;;;;;;0.50;0.50;;;;;;;;2;216071238;216071238;-89
2023/05/17 15:33:41;;;;;;;;;0.00;0.00;;;;;;;;2;261075422;261075422;-89
2023/05/17 15:41:57;;;;;;;;;0.00;0.00;;;;;;;;2;216069207;216069207;-89
2023/05/17 15:50:12;;;;;;;;;0.00;0.00;;;;;;;;2;261078167;261078167;-89
2023/05/17 15:58:31;;;;;;;;;0.50;0.50;;;;;;;;2;216066360;216066360;-89
2023/05/17 16:06:47;;;;;;;;;0.00;0.00;;;;;;;;2;261075310;261075310;-90
2023/05/17 16:15:02;;;;;;;;;0.50;0.50;;;;;;;;2;216062777;216062777;-88
2023/05/17 16:23:18;;;;;;;;;0.00;0.00;;;;;;;;2;261076715;261076715;-88
2023/05/17 16:31:33;;;;;;;;;0.00;0.00;;;;;;;;2;216067306;216067306;-88
2023/05/17 16:39:49;;;;;;;;;1.50;1.50;;;;;;;;2;261076183;261076183;-88
2023/05/17 16:48:04;;;;;;;;;0.50;0.50;;;;;;;;2;216066887;216066887;-88
2023/05/17 16:56:21;;;;;;;;;0.00;0.00;;;;;;;;2;261077752;261077752;-88
2023/05/17 17:04:36;;;;;;;;;0.50;0.50;;;;;;;;2;216065321;216065321;-88
2023/05/17 17:12:51;;;;;;;;;0.00;0.00;;;;;;;;2;261078649;261078649;-88
2023/05/17 17:21:07;;;;;;;;;0.50;0.50;;;;;;;;2;216063124;216063124;-88
2023/05/17 17:29:22;;;;;;;;;0.00;0.00;;;;;;;;2;261077693;261077693;-88
2023/05/17 17:37:38;;;;;;;;;0.50;0.50;;;;;;;;2;216064983;216064983;-88
2023/05/17 17:45:53;;;;;;;;;0.50;0.50;;;;;;;;2;261075499;261075499;-88
2023/05/17 17:54:09;;;;;;;;;0.00;0.00;;;;;;;;2;216064166;216064166;-88
2023/05/17 18:02:24;;;;;;;;;1.00;1.00;;;;;;;;2;261076897;261076897;-88
2023/05/17 18:10:42;;;;;;;;;2.50;2.50;;;;;;;;2;216061836;216061836;-88
2023/05/17 18:18:57;;;;;;;;;1.50;1.50;;;;;;;;2;261078584;261078584;-88
2023/05/17 18:27:13;;;;;;;;;1.00;1.00;;;;;;;;2;216067675;216067675;-88
2023/05/17 18:35:28;;;;;;;;;1.00;1.00;;;;;;;;2;261079969;261079969;-88
2023/05/17 18:43:43;;;;;;;;;1.00;1.00;;;;;;;;2;216064376;216064376;-89
2023/05/17 18:51:59;;;;;;;;;0.50;0.50;;;;;;;;2;261079351;261079351;-89
2023/05/17 19:00:15;;;;;;;;;0.00;0.00;;;;;;;;2;216063994;216063994;-89
2023/05/17 19:08:30;;;;;;;;;0.00;0.00;;;;;;;;2;261085310;261085310;-89
2023/05/17 19:16:45;;;;;;;;;3.00;3.00;;;;;;;;2;216067969;216067969;-88
2023/05/17 19:28:20;;;;;;;;;4.00;4.00;;;;;;;;2;261078894;261078894;-89
2023/05/17 19:36:36;;;;;;;;;1.00;1.00;;;;;;;;2;216070254;216070254;-88
2023/05/17 19:44:51;;;;;;;;;1.00;1.00;;;;;;;;2;261081638;261081638;-90
2023/05/17 19:53:07;;;;;;;;;2.00;2.00;;;;;;;;2;216069845;216069845;-89
2023/05/17 20:01:22;;;;;;;;;0.00;0.00;;;;;;;;2;261077829;261077829;-89
2023/05/17 20:09:38;;;;;;;;;1.50;1.50;;;;;;;;2;216067262;216067262;-89
2023/05/17 20:17:53;;;;;;;;;4.00;4.00;;;;;;;;2;261079721;261079721;-89
2023/05/17 20:26:15;;;;;;;;;0.00;0.00;;;;;;;;2;216068711;216068711;-89
2023/05/17 20:34:31;;;;;;;;;2.50;2.50;;;;;;;;2;261083021;261083021;-89
2023/05/17 20:42:46;;;;;;;;;2.00;2.00;;;;;;;;2;216066118;216066118;-89
2023/05/17 20:51:02;;;;;;;;;0.00;0.00;;;;;;;;2;261080379;261080379;-89
2023/05/17 20:59:18;;;;;;;;;3.00;3.00;;;;;;;;2;216069788;216069788;-89
2023/05/17 21:07:35;;;;;;;;;2.50;2.50;;;;;;;;2;261081267;261081267;-89
2023/05/17 21:15:52;;;;;;;;;1.00;1.00;;;;;;;;2;216070462;216070462;-89
2023/05/17 21:24:07;;;;;;;;;1.00;1.00;;;;;;;;2;261079940;261079940;-88
2023/05/17 21:32:23;;;;;;;;;2.50;2.50;;;;;;;;2;216068965;216068965;-89
2023/05/17 21:40:39;;;;;;;;;1.50;1.50;;;;;;;;2;261083483;261083483;-89
2023/05/17 21:48:54;;;;;;;;;4.50;4.50;;;;;;;;2;216068994;216068994;-89
2023/05/17 21:57:12;;;;;;;;;1.00;1.00;;;;;;;;2;261083423;261083423;-89
2023/05/17 22:05:28;;;;;;;;;2.50;2.50;;;;;;;;2;216067942;216067942;-89
2023/05/17 22:13:43;;;;;;;;;6.00;6.00;;;;;;;;2;261078486;261078486;-89
2023/05/17 22:21:59;;;;;;;;;2.00;2.00;;;;;;;;2;216067661;216067661;-89
2023/05/17 22:30:15;;;;;;;;;3.50;3.50;;;;;;;;2;261079429;261079429;-89
2023/05/17 22:38:31;;;;;;;;;1.50;1.50;;;;;;;;2;216069921;216069921;-89
2023/05/17 22:46:46;;;;;;;;;2.50;2.50;;;;;;;;2;261081356;261081356;-89
2023/05/17 22:55:02;;;;;;;;;1.50;1.50;;;;;;;;2;216069142;216069142;-89
2023/05/17 23:03:17;;;;;;;;;3.00;3.00;;;;;;;;2;261077661;261077661;-89
2023/05/17 23:11:33;;;;;;;;;4.50;4.50;;;;;;;;2;216065500;216065500;-89
2023/05/17 23:19:49;;;;;;;;;2.50;2.50;;;;;;;;2;261082151;261082151;-88
2023/05/17 23:28:05;;;;;;;;;6.00;2.00;;;;;;;;2;216066825;216066825;-89
2023/05/17 23:36:20;;;;;;;;;9.00;9.00;;;;;;;;2;261079751;261079751;-88
2023/05/17 23:44:43;;;;;;;;;6.50;6.50;;;;;;;;2;216066064;216066064;-88
2023/05/17 23:53:02;;;;;;;;;3.00;3.00;;;;;;;;2;261079300;261079300;-88
